Time;durP1;ratioP1;P1;durP2;ratioP2;P2;SDS_P1;SDS_P2;PMS_P1;PMS_P2;Temp;Humidity;BMP_temperature;BMP_pressure;BME280_temperature;BME280_humidity;BME280_pressure;Samples;Min_cycle;Max_cycle;Signal;HPM_P1;HPM_P2
2021/07/11 00:00:31;;;;;;;7.85;1.70;;;;;;;29.76;36.24;99503.38;4500214;31;34838;-66
2021/07/11 00:02:59;;;;;;;5.05;1.62;;;;;;;29.76;36.29;99503.38;4500183;31;34058;-65
2021/07/11 00:05:27;;;;;;;9.40;1.60;;;;;;;29.74;36.19;99490.69;4500067;31;33664;-64
2021/07/11 00:07:54;;;;;;;9.57;1.40;;;;;;;29.76;36.34;99495.94;4486110;31;33883;-64
2021/07/11 00:10:22;;;;;;;14.52;1.65;;;;;;;29.74;36.59;99487.12;4499880;31;34270;-64
2021/07/11 00:12:51;;;;;;;5.57;1.70;;;;;;;29.74;36.48;99492.63;4500147;31;34027;-64
2021/07/11 00:15:21;;;;;;;6.53;1.50;;;;;;;29.74;36.39;99487.12;4500070;31;34045;-65
2021/07/11 00:17:50;;;;;;;6.53;1.33;;;;;;;29.73;36.18;99486.31;4485647;31;33426;-64
2021/07/11 00:20:18;;;;;;;4.05;1.15;;;;;;;29.72;36.24;99478.34;4500107;31;34195;-65
2021/07/11 00:22:45;;;;;;;6.72;1.55;;;;;;;29.72;36.16;99476.41;4500102;31;34651;-65
2021/07/11 00:25:13;;;;;;;5.25;1.60;;;;;;;29.72;36.45;99475.59;4499892;31;34179;-64
2021/07/11 00:27:41;;;;;;;5.80;1.37;;;;;;;29.74;36.23;99476.13;4470574;32;33623;-64
2021/07/11 00:30:10;;;;;;;6.90;1.37;;;;;;;29.72;36.10;99464.59;4457211;32;33563;-64
2021/07/11 00:32:38;;;;;;;5.47;1.25;;;;;;;29.71;36.02;99458.25;4470324;32;34605;-64
2021/07/11 00:35:06;;;;;;;7.95;1.40;;;;;;;29.72;35.90;99457.16;4484446;32;34112;-64
2021/07/11 00:37:34;;;;;;;5.60;1.37;;;;;;;29.71;36.08;99454.69;4469992;32;33551;-64
2021/07/11 00:40:06;;;;;;;3.42;1.40;;;;;;;29.71;36.05;99454.69;4484350;32;33956;-65
2021/07/11 00:42:33;;;;;;;3.30;1.58;;;;;;;29.68;36.20;99456.06;4470222;32;33949;-65
2021/07/11 00:45:03;;;;;;;4.90;1.33;;;;;;;29.69;36.28;99457.69;4483977;32;33380;-65
2021/07/11 00:47:32;;;;;;;2.28;1.02;;;;;;;29.69;36.64;99452.19;4484177;32;33979;-65
2021/07/11 00:49:59;;;;;;;7.20;1.40;;;;;;;29.69;36.53;99454.94;4483963;32;34106;-66
2021/07/11 00:52:33;;;;;;;3.40;1.20;;;;;;;29.68;36.49;99453.31;4483978;32;34330;-65
2021/07/11 00:55:00;;;;;;;3.05;1.30;;;;;;;29.68;36.87;99450.56;4484209;32;32903;-65
2021/07/11 00:57:29;;;;;;;2.65;1.20;;;;;;;29.69;36.69;99443.13;4483775;32;34012;-65
2021/07/11 00:59:57;;;;;;;4.37;1.05;;;;;;;29.67;36.45;99437.91;4483698;32;34056;-65
2021/07/11 01:02:38;;;;;;;2.22;1.15;;;;;;;29.68;36.66;99442.31;4469771;32;33972;-66
2021/07/11 01:05:10;;;;;;;7.00;1.20;;;;;;;29.68;36.30;99442.31;4483658;32;33644;-66
2021/07/11 01:07:49;;;;;;;3.45;1.10;;;;;;;29.67;36.31;99439.84;4469606;32;33951;-66
2021/07/11 01:10:22;;;;;;;3.92;1.42;;;;;;;29.66;36.38;99439.03;4468149;31;34920;-65
2021/07/11 01:12:53;;;;;;;3.50;1.05;;;;;;;29.66;36.55;99432.72;4485855;31;34670;-64
2021/07/11 01:15:23;;;;;;;4.57;1.15;;;;;;;29.64;36.60;99437.66;4499447;31;33585;-65
2021/07/11 01:17:55;;;;;;;6.12;1.12;;;;;;;29.63;36.68;99439.56;4472857;31;34012;-65
2021/07/11 01:21:09;;;;;;;3.17;1.20;;;;;;;29.64;36.82;99430.22;4485167;31;34050;-64
2021/07/11 01:23:50;;;;;;;3.37;1.05;;;;;;;29.67;36.58;99432.41;4497180;31;33677;-64
2021/07/11 01:26:18;;;;;;;2.75;1.02;;;;;;;29.62;36.78;99428.84;4498845;31;33338;-65
2021/07/11 01:28:50;;;;;;;4.22;1.20;;;;;;;29.62;36.68;99435.19;4485403;31;34765;-65
2021/07/11 01:31:18;;;;;;;5.53;1.20;;;;;;;29.62;36.66;99432.44;4472466;31;33845;-65
2021/07/11 01:33:46;;;;;;;6.35;1.40;;;;;;;29.62;36.97;99431.59;4472307;31;33977;-65
2021/07/11 01:36:16;;;;;;;3.83;1.45;;;;;;;29.62;37.07;99435.19;4472567;31;33308;-65
2021/07/11 01:38:46;;;;;;;6.20;1.27;;;;;;;29.62;37.10;99435.19;4499010;31;34673;-65
2021/07/11 01:41:14;;;;;;;;;;;;;;;29.65;36.58;99428.28;4499441;31;34014;-65
2021/07/11 01:43:42;;;;;;;7.53;2.12;;;;;;;29.75;36.23;99428.25;4484923;31;34382;-66
2021/07/11 01:46:10;;;;;;;3.90;0.98;;;;;;;29.64;36.96;99427.47;4485007;31;33625;-65
2021/07/11 01:48:38;;;;;;;5.22;1.10;;;;;;;29.61;36.92;99419.78;4472306;31;34185;-65
2021/07/11 01:51:06;;;;;;;7.25;1.27;;;;;;;29.62;36.67;99424.19;4484722;31;34137;-65
2021/07/11 01:53:35;;;;;;;5.57;1.27;;;;;;;29.60;36.39;99420.88;4498856;31;34654;-65
2021/07/11 01:56:04;;;;;;;7.45;1.70;;;;;;;29.61;36.59;99424.44;4498992;31;33443;-64
2021/07/11 01:58:31;;;;;;;6.93;1.33;;;;;;;29.62;36.82;99426.12;4484351;31;33853;-65
2021/07/11 02:00:59;;;;;;;9.65;1.80;;;;;;;29.60;36.65;99420.03;4498996;31;34082;-65
2021/07/11 02:03:28;;;;;;;8.07;1.20;;;;;;;29.59;36.86;99424.72;4499049;31;34543;-64
2021/07/11 02:05:56;;;;;;;6.85;1.50;;;;;;;29.61;36.76;99421.69;4499010;31;33469;-65
2021/07/11 02:08:24;;;;;;;4.60;1.20;;;;;;;29.62;36.72;99428.84;4498739;31;34293;-64
2021/07/11 02:10:54;;;;;;;6.93;1.12;;;;;;;29.61;36.60;99430.78;4498496;31;34322;-64
2021/07/11 02:13:33;;;;;;;7.65;1.33;;;;;;;29.60;36.66;99431.03;4484828;31;33780;-65
2021/07/11 02:16:06;;;;;;;8.70;1.40;;;;;;;29.60;36.76;99428.28;4485226;31;33850;-64
2021/07/11 02:18:34;;;;;;;3.97;1.15;;;;;;;29.60;36.55;99425.53;4484517;31;34641;-64
2021/07/11 02:21:01;;;;;;;7.60;1.30;;;;;;;29.58;36.65;99425.84;4484511;31;34107;-65
2021/07/11 02:23:30;;;;;;;3.70;1.20;;;;;;;29.58;36.71;99419.50;4486970;31;34193;-64
2021/07/11 02:25:58;;;;;;;10.40;1.90;;;;;;;29.57;36.47;99421.44;4486872;31;33552;-66
2021/07/11 02:28:30;;;;;;;2.62;1.15;;;;;;;29.59;36.65;99426.66;4486771;31;33671;-64
2021/07/11 02:31:00;;;;;;;7.57;1.30;;;;;;;29.58;36.71;99422.25;4461117;31;34078;-65
2021/07/11 02:33:35;;;;;;;6.55;1.37;;;;;;;29.58;36.90;99427.75;4500536;31;34162;-64
2021/07/11 02:36:05;;;;;;;4.75;1.12;;;;;;;29.58;36.72;99431.34;4487481;31;33607;-64
2021/07/11 02:38:45;;;;;;;2.92;1.10;;;;;;;29.57;36.79;99432.44;4486708;31;33639;-64
2021/07/11 02:41:16;;;;;;;5.70;0.90;;;;;;;29.59;36.97;99440.41;4501054;31;34033;-65
2021/07/11 02:43:44;;;;;;;4.28;1.10;;;;;;;29.57;36.85;99437.13;4500949;31;34577;-65
2021/07/11 02:46:13;;;;;;;4.25;1.00;;;;;;;29.57;36.78;99440.69;4500623;31;33606;-65
2021/07/11 02:48:42;;;;;;;;;;;;;;;29.56;36.84;99447.25;4487177;31;34047;-64
2021/07/11 02:51:11;;;;;;;3.97;1.10;;;;;;;29.69;36.78;99443.94;4486812;31;35088;-64
2021/07/11 02:53:43;;;;;;;5.70;1.10;;;;;;;29.59;36.75;99443.97;4500595;31;34472;-65
2021/07/11 02:56:15;;;;;;;;;;;;;;;29.58;37.01;99439.59;4474640;31;33046;-64
2021/07/11 02:58:43;;;;;;;4.22;1.00;;;;;;;29.68;36.71;99456.06;4500281;31;33910;-65
2021/07/11 03:01:11;;;;;;;4.00;1.27;;;;;;;29.59;37.02;99448.66;4472979;31;34527;-65
2021/07/11 03:03:40;;;;;;;3.78;1.10;;;;;;;29.56;37.16;99447.25;4473822;31;33989;-64
2021/07/11 03:06:08;;;;;;;2.90;1.30;;;;;;;29.55;37.23;99451.13;4486229;31;34446;-65
2021/07/11 03:08:37;;;;;;;2.17;1.12;;;;;;;29.56;37.29;99452.75;4499547;31;32422;-65
2021/07/11 03:11:05;;;;;;;3.58;1.23;;;;;;;29.58;37.23;99458.00;4484980;32;34066;-65
2021/07/11 03:13:34;;;;;;;4.68;1.33;;;;;;;29.57;37.39;99464.59;4483336;32;34590;-65
2021/07/11 03:16:03;;;;;;;5.33;1.50;;;;;;;29.57;37.34;99464.59;4483923;32;34263;-64
2021/07/11 03:18:30;;;;;;;4.10;1.35;;;;;;;29.57;37.38;99457.19;4483548;32;34031;-65
2021/07/11 03:20:58;;;;;;;7.95;1.95;;;;;;;29.57;37.46;99454.44;4488244;31;34100;-66
2021/07/11 03:23:26;;;;;;;4.97;1.92;;;;;;;29.57;37.51;99456.38;4499411;31;34817;-64
2021/07/11 03:25:54;;;;;;;6.12;1.60;;;;;;;29.58;37.56;99452.50;4486376;31;33696;-64
2021/07/11 03:28:22;;;;;;;4.20;1.48;;;;;;;29.59;37.64;99459.66;4499169;31;33862;-65
2021/07/11 03:30:51;;;;;;;2.50;1.50;;;;;;;29.57;37.68;99457.19;4500419;31;34064;-64
2021/07/11 03:33:18;;;;;;;5.07;1.77;;;;;;;29.58;37.74;99455.25;4485763;31;33990;-65
2021/07/11 03:35:53;;;;;;;4.45;1.73;;;;;;;29.59;37.80;99457.72;4486096;31;33036;-65
2021/07/11 03:38:23;;;;;;;4.07;1.87;;;;;;;29.59;37.85;99460.47;4499403;31;34051;-64
2021/07/11 03:40:52;;;;;;;;;;;;;;;29.60;37.92;99466.78;4499585;31;34948;-65
2021/07/11 03:43:22;;;;;;;5.80;2.33;;;;;;;29.70;37.79;99456.62;4500605;31;34142;-65
2021/07/11 03:45:52;;;;;;;5.43;2.03;;;;;;;29.61;38.01;99460.19;4500353;31;34640;-65
2021/07/11 03:48:24;;;;;;;;;;;;;;;29.58;38.14;99455.25;4499156;31;33614;-65
2021/07/11 03:50:54;;;;;;;4.10;2.10;;;;;;;29.70;37.95;99447.53;4500446;31;34849;-65
2021/07/11 03:53:24;;;;;;;4.87;2.20;;;;;;;29.60;38.20;99450.28;4498676;31;33557;-64
2021/07/11 03:55:52;;;;;;;5.62;2.20;;;;;;;29.58;38.35;99447.81;4486387;31;33014;-64
2021/07/11 03:58:20;;;;;;;10.38;2.22;;;;;;;29.58;38.33;99449.75;4505398;31;33673;-65
2021/07/11 04:00:49;;;;;;;5.12;2.50;;;;;;;29.58;38.43;99439.59;4501626;31;34783;-65
2021/07/11 04:03:17;;;;;;;7.30;2.65;;;;;;;29.58;38.47;99439.59;4489006;31;33945;-65
2021/07/11 04:05:45;;;;;;;4.53;2.53;;;;;;;29.58;38.55;99442.31;4488896;31;33569;-64
2021/07/11 04:08:14;;;;;;;5.93;2.58;;;;;;;29.58;38.61;99438.75;4515942;31;34678;-65
2021/07/11 04:10:41;;;;;;;12.88;2.85;;;;;;;29.58;38.65;99442.31;4484340;31;35336;-66
2021/07/11 04:13:09;;;;;;;6.00;2.75;;;;;;;29.60;38.70;99439.28;4472725;31;33749;-65
2021/07/11 04:15:37;;;;;;;7.22;2.75;;;;;;;29.58;38.75;99439.59;4485834;31;33809;-65
2021/07/11 04:18:11;;;;;;;7.22;3.00;;;;;;;29.59;38.85;99452.22;4473001;31;34063;-66
2021/07/11 04:20:43;;;;;;;10.63;2.90;;;;;;;29.59;38.87;99443.97;4476016;31;34011;-65
2021/07/11 04:23:11;;;;;;;7.70;2.92;;;;;;;29.58;38.92;99442.31;4486492;31;33610;-65
2021/07/11 04:25:41;;;;;;;7.07;3.17;;;;;;;29.60;38.95;99453.03;4496752;31;34267;-65
2021/07/11 04:28:09;;;;;;;7.37;3.10;;;;;;;29.58;39.02;99456.06;4499819;31;34671;-65
2021/07/11 04:30:37;;;;;;;8.27;3.08;;;;;;;29.58;39.06;99450.56;4485810;31;34799;-64
2021/07/11 04:33:04;;;;;;;5.28;2.75;;;;;;;29.59;39.12;99454.97;4472809;31;33944;-65
2021/07/11 04:35:32;;;;;;;8.18;3.25;;;;;;;29.60;39.15;99444.78;4499774;31;33162;-65
2021/07/11 04:37:59;;;;;;;9.60;3.10;;;;;;;29.59;39.25;99452.22;4499797;31;33768;-64
2021/07/11 04:40:27;;;;;;;5.95;3.00;;;;;;;29.60;39.23;99450.28;4499845;31;34281;-65
2021/07/11 04:42:54;;;;;;;7.55;3.20;;;;;;;29.59;39.28;99452.22;4499715;31;34742;-64
2021/07/11 04:45:22;;;;;;;8.57;3.72;;;;;;;29.59;39.35;99452.22;4498791;31;33480;-65
2021/07/11 04:47:50;;;;;;;9.40;3.67;;;;;;;29.60;39.46;99447.53;4499836;31;33856;-65
2021/07/11 04:50:18;;;;;;;6.50;3.25;;;;;;;29.60;39.53;99461.28;4499716;31;34000;-64
2021/07/11 04:52:46;;;;;;;6.28;3.25;;;;;;;29.61;39.53;99461.03;4499532;31;34087;-65
2021/07/11 04:55:15;;;;;;;5.95;3.20;;;;;;;29.60;39.61;99461.28;4485618;31;34129;-65
2021/07/11 04:57:43;;;;;;;8.75;4.18;;;;;;;29.60;39.68;99466.78;4485594;31;33883;-64
2021/07/11 05:00:12;;;;;;;7.12;3.90;;;;;;;29.62;39.67;99472.84;4485436;31;33991;-64
2021/07/11 05:02:40;;;;;;;6.15;3.60;;;;;;;29.62;39.64;99467.34;4472623;31;34330;-65
2021/07/11 05:05:08;;;;;;;8.88;3.60;;;;;;;29.62;39.74;99465.44;4499539;31;33567;-65
2021/07/11 05:07:35;;;;;;;10.30;3.70;;;;;;;29.62;39.78;99468.16;4499636;31;33982;-64
2021/07/11 05:10:07;;;;;;;12.95;4.15;;;;;;;29.61;39.74;99469.28;4475071;32;34882;-64
2021/07/11 05:12:34;;;;;;;9.30;3.55;;;;;;;29.61;39.84;99469.28;4483593;32;33714;-64
2021/07/11 05:15:03;;;;;;;7.43;3.90;;;;;;;29.62;39.85;99468.16;4483760;32;34169;-64
2021/07/11 05:17:30;;;;;;;7.18;4.22;;;;;;;29.63;39.99;99474.50;4483618;32;33860;-65
2021/07/11 05:19:57;;;;;;;10.07;4.50;;;;;;;29.62;40.02;99473.66;4483452;32;33329;-65
2021/07/11 05:22:25;;;;;;;8.75;4.68;;;;;;;29.63;40.02;99474.50;4498070;31;34043;-65
2021/07/11 05:24:53;;;;;;;11.50;4.55;;;;;;;29.62;40.13;99483.84;4499376;31;34268;-65
2021/07/11 05:27:20;;;;;;;20.45;4.62;;;;;;;29.63;40.18;99486.31;4499068;31;33977;-66
2021/07/11 05:29:48;;;;;;;9.40;4.80;;;;;;;29.64;40.28;99493.44;4499269;31;33974;-64
2021/07/11 05:32:15;;;;;;;6.10;4.62;;;;;;;29.62;40.36;99497.59;4499215;31;33945;-65
2021/07/11 05:34:43;;;;;;;10.80;4.87;;;;;;;29.64;40.39;99498.13;4499107;31;33922;-65
2021/07/11 05:37:10;;;;;;;8.52;4.82;;;;;;;29.64;40.41;99485.22;4499287;31;34005;-64
2021/07/11 05:39:38;;;;;;;8.40;4.60;;;;;;;29.65;40.48;99488.78;4498053;31;33949;-64
2021/07/11 05:42:05;;;;;;;10.75;5.00;;;;;;;29.64;40.59;99490.69;4499052;31;33927;-65
2021/07/11 05:44:33;;;;;;;8.57;4.90;;;;;;;29.64;40.50;99490.69;4497962;31;33494;-64
2021/07/11 05:47:00;;;;;;;9.07;4.45;;;;;;;29.65;40.55;99486.84;4498970;31;34216;-64
2021/07/11 05:49:28;;;;;;;7.28;4.78;;;;;;;29.67;40.55;99487.41;4498814;31;33744;-64
2021/07/11 05:51:56;;;;;;;7.70;4.55;;;;;;;29.65;40.59;99484.09;4498959;31;34090;-65
2021/07/11 05:54:23;;;;;;;8.38;4.75;;;;;;;29.65;40.60;99489.59;4498869;31;34342;-64
2021/07/11 05:56:52;;;;;;;9.90;5.57;;;;;;;29.67;40.50;99494.84;4500778;31;33759;-65
2021/07/11 05:59:19;;;;;;;10.48;5.45;;;;;;;29.67;40.62;99494.84;4512603;31;34171;-65
2021/07/11 06:01:47;;;;;;;10.02;5.03;;;;;;;29.67;40.73;99503.09;4517004;31;34621;-65
2021/07/11 06:04:14;;;;;;;8.48;4.60;;;;;;;29.68;40.70;99511.06;4517076;31;33153;-65
2021/07/11 06:06:42;;;;;;;8.65;5.25;;;;;;;29.67;40.66;99511.34;4516976;31;33964;-65
2021/07/11 06:09:09;;;;;;;9.60;5.72;;;;;;;29.67;40.71;99514.91;4512381;31;33963;-66
2021/07/11 06:11:39;;;;;;;8.43;4.75;;;;;;;29.68;40.61;99507.47;4501243;31;33917;-66
2021/07/11 06:14:07;;;;;;;15.32;4.90;;;;;;;29.69;40.74;99509.12;4500820;31;33556;-64
2021/07/11 06:16:34;;;;;;;9.73;4.87;;;;;;;29.69;40.70;99507.19;4486471;31;33938;-65
2021/07/11 06:19:03;;;;;;;9.70;5.18;;;;;;;29.68;40.77;99504.72;4501008;31;33962;-65
2021/07/11 06:21:30;;;;;;;10.35;4.95;;;;;;;29.68;40.79;99505.56;4478086;32;34625;-67
2021/07/11 06:23:58;;;;;;;9.95;5.30;;;;;;;29.69;40.71;99507.19;4484986;32;33583;-67
2021/07/11 06:26:25;;;;;;;11.48;5.32;;;;;;;29.68;40.89;99507.47;4470704;32;33578;-64
2021/07/11 06:28:54;;;;;;;12.55;5.20;;;;;;;29.71;40.83;99509.69;4485115;32;34802;-65
2021/07/11 06:31:21;;;;;;;8.73;4.90;;;;;;;29.68;40.78;99505.56;4484875;32;33955;-65
2021/07/11 06:33:49;;;;;;;8.13;5.15;;;;;;;29.69;40.74;99509.12;4485043;32;34202;-64
2021/07/11 06:36:17;;;;;;;11.02;5.50;;;;;;;29.70;40.77;99508.03;4484995;32;34025;-64
2021/07/11 06:38:44;;;;;;;7.82;4.75;;;;;;;29.70;40.86;99513.53;4484842;32;34800;-65
2021/07/11 06:41:12;;;;;;;13.25;5.95;;;;;;;29.70;40.97;99513.53;4484848;32;34095;-65
2021/07/11 06:43:39;;;;;;;12.27;5.47;;;;;;;29.68;41.02;99516.56;4484943;32;33492;-65
2021/07/11 06:46:07;;;;;;;8.10;5.53;;;;;;;29.72;40.87;99511.34;4484831;32;33947;-65
2021/07/11 06:48:36;;;;;;;9.88;5.07;;;;;;;29.73;40.86;99507.47;4484975;32;34014;-65
2021/07/11 06:51:03;;;;;;;10.80;5.95;;;;;;;29.72;40.83;99514.91;4484938;32;34503;-66
2021/07/11 06:53:31;;;;;;;11.38;5.40;;;;;;;29.72;40.97;99512.16;4484571;32;33163;-66
2021/07/11 06:55:59;;;;;;;9.75;5.53;;;;;;;29.71;41.03;99510.50;4487091;31;34385;-67
2021/07/11 06:58:26;;;;;;;19.10;5.90;;;;;;;29.72;40.99;99503.09;4494198;31;35057;-67
2021/07/11 07:00:53;;;;;;;9.40;5.10;;;;;;;29.72;41.03;99501.16;4500752;31;34730;-68
2021/07/11 07:03:21;;;;;;;15.32;6.22;;;;;;;29.74;40.97;99498.13;4500471;31;33174;-65
2021/07/11 07:05:48;;;;;;;12.48;6.10;;;;;;;29.75;40.96;99499.75;4500726;31;34033;-67
2021/07/11 07:08:16;;;;;;;16.60;6.00;;;;;;;29.74;41.17;99496.19;4499825;31;34803;-65
2021/07/11 07:10:43;;;;;;;11.48;6.03;;;;;;;29.74;41.27;99496.19;4500632;31;34668;-65
2021/07/11 07:13:11;;;;;;;15.43;5.80;;;;;;;29.75;41.32;99499.75;4500598;31;34179;-65
2021/07/11 07:15:38;;;;;;;17.30;7.47;;;;;;;29.74;41.33;99498.13;4484404;32;34447;-65
2021/07/11 07:18:07;;;;;;;10.18;5.53;;;;;;;29.76;41.30;99506.94;4484727;32;34818;-64
2021/07/11 07:20:34;;;;;;;14.35;5.37;;;;;;;29.74;41.28;99507.19;4486819;31;34635;-65
2021/07/11 07:23:02;;;;;;;8.95;5.40;;;;;;;29.76;41.24;99512.44;4500226;31;34328;-65
2021/07/11 07:25:29;;;;;;;13.27;5.60;;;;;;;29.78;41.21;99514.91;4500496;31;34760;-64
2021/07/11 07:27:57;;;;;;;10.65;5.57;;;;;;;29.76;41.24;99517.94;4500666;31;34169;-65
2021/07/11 07:30:24;;;;;;;10.93;5.20;;;;;;;29.78;41.25;99509.41;4500229;31;33969;-65
2021/07/11 07:32:52;;;;;;;8.82;5.60;;;;;;;29.78;41.18;99515.72;4499099;31;32133;-65
2021/07/11 07:35:20;;;;;;;17.50;6.50;;;;;;;29.79;41.17;99516.53;4499007;31;34831;-64
2021/07/11 07:37:48;;;;;;;10.00;5.97;;;;;;;29.79;41.23;99513.78;4500270;31;34227;-66
2021/07/11 07:40:17;;;;;;;8.32;6.03;;;;;;;29.78;41.28;99518.47;4500288;31;33989;-64
2021/07/11 07:42:45;;;;;;;10.43;5.45;;;;;;;29.79;41.20;99522.03;4499230;31;34389;-62
2021/07/11 07:45:13;;;;;;;14.85;5.75;;;;;;;29.80;41.16;99520.94;4500202;31;34068;-68
2021/07/11 07:47:40;;;;;;;17.85;5.70;;;;;;;29.80;41.02;99524.53;4500196;31;33942;-68
2021/07/11 07:50:10;;;;;;;11.70;5.62;;;;;;;29.81;41.00;99525.34;4500514;31;34105;-68
2021/07/11 07:52:37;;;;;;;9.75;5.22;;;;;;;29.81;40.90;99523.44;4500068;31;33900;-68
2021/07/11 07:55:06;;;;;;;17.02;5.70;;;;;;;29.83;40.85;99531.41;4500541;31;33515;-69
2021/07/11 07:57:33;;;;;;;9.30;6.00;;;;;;;29.82;40.87;99527.81;4500002;31;35196;-68
2021/07/11 08:00:00;;;;;;;18.83;6.00;;;;;;;29.83;40.84;99517.66;4500193;31;33786;-67
2021/07/11 08:02:39;;;;;;;12.32;5.97;;;;;;;29.82;40.84;99514.06;4487310;31;33822;-68
2021/07/11 08:05:07;;;;;;;10.77;5.75;;;;;;;29.83;40.78;99512.97;4485901;31;33572;-67
2021/07/11 08:07:35;;;;;;;15.07;6.15;;;;;;;29.83;40.85;99512.97;4500136;31;33967;-66
2021/07/11 08:10:04;;;;;;;15.48;5.53;;;;;;;29.84;40.80;99513.78;4500199;31;34152;-68
2021/07/11 08:12:32;;;;;;;14.85;6.00;;;;;;;29.83;40.73;99512.16;4485753;31;33444;-68
2021/07/11 08:15:00;;;;;;;10.20;5.30;;;;;;;29.85;40.68;99513.53;4485853;31;34724;-70
2021/07/11 08:17:27;;;;;;;13.93;5.68;;;;;;;29.84;40.75;99508.28;4499957;31;34787;-70
2021/07/11 08:19:55;;;;;;;11.15;6.18;;;;;;;29.84;40.66;99516.53;4499777;31;35080;-65
2021/07/11 08:22:23;;;;;;;10.43;4.97;;;;;;;29.83;40.67;99507.47;4499858;31;33724;-69
2021/07/11 08:24:50;;;;;;;11.38;5.47;;;;;;;29.83;40.59;99515.72;4500077;31;33811;-64
2021/07/11 08:27:18;;;;;;;7.25;5.62;;;;;;;29.84;40.65;99511.03;4483455;31;33174;-70
2021/07/11 08:29:50;;;;;;;12.27;5.22;;;;;;;29.83;40.58;99509.41;4494009;31;33546;-66
2021/07/11 08:32:19;;;;;;;9.32;5.87;;;;;;;29.83;40.58;99509.41;4490538;31;33403;-70
2021/07/11 08:34:46;;;;;;;10.45;5.87;;;;;;;29.83;40.57;99510.22;4472342;31;33519;-69
2021/07/11 08:37:14;;;;;;;8.75;5.72;;;;;;;29.85;40.55;99512.72;4499857;31;34093;-68
2021/07/11 08:39:42;;;;;;;12.45;6.40;;;;;;;29.83;40.51;99501.12;4492934;31;33995;-69
2021/07/11 08:42:10;;;;;;;7.78;5.40;;;;;;;29.83;40.51;99503.91;4462604;31;34696;-70
2021/07/11 08:44:37;;;;;;;9.38;5.40;;;;;;;29.83;40.46;99493.72;4476530;31;34015;-69
2021/07/11 08:47:05;;;;;;;10.55;5.28;;;;;;;29.85;40.45;99509.97;4476841;31;33675;-69
2021/07/11 08:49:33;;;;;;;8.20;5.20;;;;;;;29.84;40.44;99506.34;4461787;31;33853;-65
2021/07/11 08:52:01;;;;;;;9.60;5.20;;;;;;;29.84;40.36;99509.09;4476755;31;31985;-72
2021/07/11 08:54:29;;;;;;;9.65;5.12;;;;;;;29.83;40.36;99504.72;4474012;31;34291;-73
2021/07/11 08:57:04;;;;;;;10.20;4.82;;;;;;;29.84;40.46;99509.09;4476474;31;34226;-72
2021/07/11 08:59:32;;;;;;;17.30;5.62;;;;;;;29.84;40.57;99500.03;4475394;31;34117;-71
2021/07/11 09:01:59;;;;;;;12.88;4.62;;;;;;;29.86;40.64;99497.84;4454923;31;32004;-71
2021/07/11 09:04:35;;;;;;;12.25;5.12;;;;;;;29.85;40.63;99486.03;4478073;31;33301;-68
2021/07/11 09:07:04;;;;;;;13.95;5.20;;;;;;;29.86;40.59;99486.84;4447905;31;33073;-66
2021/07/11 09:09:35;;;;;;;10.38;5.07;;;;;;;29.88;40.61;99487.38;4475101;31;34247;-71
2021/07/11 09:12:08;;;;;;;10.50;5.35;;;;;;;29.87;40.67;99483.00;4477259;31;34195;-70
2021/07/11 09:14:56;;;;;;;9.85;5.40;;;;;;;29.87;40.77;99478.31;4476714;31;32418;-70
2021/07/11 09:17:23;;;;;;;15.32;6.00;;;;;;;29.89;40.72;99483.53;4461180;31;34072;-67
2021/07/11 09:19:53;;;;;;;12.07;5.37;;;;;;;29.88;40.77;99479.12;4475718;31;33174;-71
2021/07/11 09:22:22;;;;;;;9.60;5.45;;;;;;;29.87;40.84;99481.06;4475098;31;33535;-68
2021/07/11 09:24:50;;;;;;;10.02;5.18;;;;;;;29.88;40.82;99482.69;4475263;31;34169;-71
2021/07/11 09:27:21;;;;;;;14.30;5.37;;;;;;;29.88;40.84;99477.19;4482291;31;34039;-71
2021/07/11 09:29:49;;;;;;;10.00;5.18;;;;;;;29.89;40.87;99478.88;4474938;32;34035;-72
2021/07/11 09:32:36;;;;;;;10.70;5.20;;;;;;;29.90;40.85;99468.69;4472120;31;34115;-73
2021/07/11 09:35:14;;;;;;;13.95;5.43;;;;;;;29.90;40.81;99469.50;4497798;31;33929;-71
2021/07/11 09:37:43;;;;;;;8.60;5.10;;;;;;;29.89;40.91;99467.87;4476888;31;33513;-69
2021/07/11 09:40:11;;;;;;;11.00;5.40;;;;;;;29.89;40.96;99467.03;4461112;31;34318;-65
2021/07/11 09:42:40;;;;;;;11.10;5.10;;;;;;;29.91;40.91;99478.59;4462850;31;33903;-70
2021/07/11 09:45:17;;;;;;;12.07;5.45;;;;;;;29.91;40.94;99468.41;4476842;31;35497;-72
2021/07/11 09:47:47;;;;;;;11.55;5.22;;;;;;;29.92;40.91;99471.97;4476924;31;32392;-70
2021/07/11 09:50:19;;;;;;;11.23;5.53;;;;;;;29.93;40.90;99470.88;4462327;31;34673;-70
2021/07/11 09:52:48;;;;;;;10.70;5.22;;;;;;;29.92;40.90;99471.97;4463285;31;33169;-66
2021/07/11 09:55:18;;;;;;;9.85;5.47;;;;;;;29.93;40.89;99474.44;4477332;31;34676;-68
2021/07/11 09:57:52;;;;;;;7.70;5.28;;;;;;;29.94;40.88;99472.53;4478228;31;34075;-68
2021/07/11 10:00:27;;;;;;;12.10;5.05;;;;;;;29.94;40.92;99469.78;4477098;31;34122;-72
2021/07/11 10:02:59;;;;;;;11.75;5.45;;;;;;;29.94;40.98;99467.03;4476881;31;34384;-71
2021/07/11 10:05:27;;;;;;;8.50;4.68;;;;;;;29.93;41.00;99468.13;4477321;31;32580;-71
2021/07/11 10:07:55;;;;;;;13.15;5.62;;;;;;;29.93;41.01;99460.69;4478011;31;34041;-72
2021/07/11 10:10:28;;;;;;;9.25;5.65;;;;;;;29.93;41.04;99460.69;4461074;31;32118;-67
2021/07/11 10:12:56;;;;;;;7.82;5.05;;;;;;;29.95;40.97;99457.69;4477381;31;32565;-71
2021/07/11 10:15:25;;;;;;;8.63;5.18;;;;;;;29.96;40.92;99462.88;4477309;31;32631;-70
2021/07/11 10:18:02;;;;;;;8.93;5.40;;;;;;;29.96;40.99;99462.06;4476526;31;34148;-71
2021/07/11 10:20:31;;;;;;;10.13;4.97;;;;;;;29.95;41.03;99464.00;4476434;31;32691;-72
2021/07/11 10:22:59;;;;;;;7.60;5.30;;;;;;;29.96;40.98;99464.81;4464598;31;32925;-67
2021/07/11 10:25:27;;;;;;;8.40;5.15;;;;;;;29.96;41.04;99457.38;4476559;31;35245;-69
2021/07/11 10:28:07;;;;;;;11.43;5.47;;;;;;;29.93;41.11;99457.94;4476641;31;33931;-70
2021/07/11 10:30:35;;;;;;;9.43;5.40;;;;;;;29.96;41.13;99465.63;4474282;31;34474;-68
2021/07/11 10:33:10;;;;;;;8.82;5.18;;;;;;;29.95;41.14;99455.75;4461728;31;33151;-68
2021/07/11 10:35:51;;;;;;;11.93;5.28;;;;;;;29.96;41.07;99456.56;4461032;31;32608;-68
2021/07/11 10:38:41;;;;;;;10.07;4.90;;;;;;;29.96;41.06;99453.81;4476723;31;33919;-68
2021/07/11 10:41:17;;;;;;;11.07;5.15;;;;;;;29.97;41.05;99456.28;4476760;31;33250;-71
2021/07/11 10:43:58;;;;;;;11.45;5.50;;;;;;;29.94;41.11;99450.53;4476955;31;31770;-69
2021/07/11 10:46:44;;;;;;;10.73;5.35;;;;;;;29.94;41.08;99437.59;4462705;31;34545;-68
2021/07/11 10:49:20;;;;;;;13.05;5.40;;;;;;;29.99;41.05;99439.50;4475963;31;34153;-69
2021/07/11 10:51:57;;;;;;;6.93;4.60;;;;;;;29.96;41.14;99427.13;4466576;31;33693;-66
2021/07/11 10:54:36;;;;;;;13.48;5.93;;;;;;;29.95;41.18;99433.75;4476819;31;33627;-69
2021/07/11 10:57:11;;;;;;;10.50;5.70;;;;;;;29.99;41.16;99434.84;4477503;31;34640;-66
2021/07/11 10:59:39;;;;;;;10.85;5.50;;;;;;;29.98;41.19;99427.69;4448085;31;32699;-69
2021/07/11 11:02:15;;;;;;;8.30;5.05;;;;;;;29.97;41.17;99431.53;4476403;31;33818;-70
2021/07/11 11:04:44;;;;;;;11.55;5.00;;;;;;;30.00;41.16;99424.66;4476634;31;33397;-67
2021/07/11 11:07:16;;;;;;;13.87;5.17;;;;;;;30.01;41.16;99425.47;4475599;31;33585;-71
2021/07/11 11:09:47;;;;;;;13.48;5.00;;;;;;;30.02;41.22;99429.87;4476665;31;32658;-68
2021/07/11 11:12:18;;;;;;;;;;;;;;;30.01;41.17;99423.53;4462147;31;33358;-69
2021/07/11 11:14:56;;;;;;;11.23;5.65;;;;;;;30.15;41.07;99429.31;4476512;31;33389;-72
2021/07/11 11:17:33;;;;;;;9.85;5.05;;;;;;;30.07;41.29;99419.66;4462821;31;34194;-64
2021/07/11 11:20:21;;;;;;;15.52;5.00;;;;;;;30.05;41.34;99416.38;4460753;31;33596;-68
2021/07/11 11:22:53;;;;;;;16.02;5.32;;;;;;;30.08;41.23;99431.47;4477531;31;32470;-66
2021/07/11 11:25:21;;;;;;;10.40;5.43;;;;;;;30.04;41.36;99423.00;4476653;31;33804;-67
2021/07/11 11:27:53;;;;;;;10.60;5.20;;;;;;;30.05;41.36;99430.13;4476410;31;32610;-67
2021/07/11 11:30:24;;;;;;;9.57;5.05;;;;;;;30.06;41.39;99425.44;4476416;31;33376;-68
2021/07/11 11:33:00;;;;;;;10.90;5.40;;;;;;;30.06;41.40;99420.78;4476641;31;33591;-66
2021/07/11 11:35:29;;;;;;;15.70;6.12;;;;;;;30.08;41.40;99432.34;4475739;31;33524;-64
2021/07/11 11:37:58;;;;;;;10.45;5.35;;;;;;;30.08;41.30;99440.59;4475416;31;33382;-69
2021/07/11 11:40:28;;;;;;;10.50;5.40;;;;;;;30.09;41.36;99447.72;4476317;31;34028;-65
2021/07/11 11:42:58;;;;;;;10.82;4.97;;;;;;;30.09;41.33;99449.66;4476727;31;33861;-71